createdAt,value
2023-02-06T00:01:42.526Z,20.33
2023-02-06T00:04:11.669Z,21.80
2023-02-06T00:06:40.715Z,18.50
2023-02-06T00:09:09.471Z,20.15
2023-02-06T00:11:38.263Z,22.10
2023-02-06T00:14:23.258Z,19.33
2023-02-06T00:16:54.896Z,17.75
2023-02-06T00:19:23.445Z,19.63
2023-02-06T00:21:52.018Z,18.15
2023-02-06T00:24:20.141Z,18.17
2023-02-06T00:26:48.535Z,19.45
2023-02-06T00:29:18.617Z,21.35
2023-02-06T00:31:47.044Z,22.63
2023-02-06T00:34:15.340Z,19.20
2023-02-06T00:36:43.479Z,21.17
2023-02-06T00:39:11.676Z,19.77
2023-02-06T00:41:40.137Z,22.15
2023-02-06T00:44:08.464Z,20.55
2023-02-06T00:46:38.611Z,15.65
2023-02-06T00:49:06.902Z,17.48
2023-02-06T00:51:38.845Z,16.92
2023-02-06T00:54:10.360Z,17.25
2023-02-06T00:56:38.473Z,15.90
2023-02-06T00:59:06.751Z,17.42
2023-02-06T01:01:35.342Z,17.17
2023-02-06T01:04:06.339Z,16.00
2023-02-06T01:06:34.792Z,16.67
2023-02-06T01:09:03.958Z,21.60
2023-02-06T01:11:32.271Z,15.88
2023-02-06T01:14:04.320Z,20.58
2023-02-06T01:16:33.033Z,23.02
2023-02-06T01:19:01.162Z,24.85
2023-02-06T01:21:30.753Z,21.45
2023-02-06T01:23:59.008Z,19.95
2023-02-06T01:26:27.927Z,18.70
2023-02-06T01:28:56.795Z,20.60
2023-02-06T01:31:27.603Z,17.50
2023-02-06T01:33:57.803Z,17.48
2023-02-06T01:36:26.722Z,16.92
2023-02-06T01:38:56.499Z,17.38
2023-02-06T01:41:25.759Z,16.95
2023-02-06T01:44:13.602Z,18.25
2023-02-06T01:46:44.085Z,16.08
2023-02-06T01:49:18.613Z,12.25
2023-02-06T01:51:48.115Z,16.05
2023-02-06T01:54:21.664Z,15.35
2023-02-06T01:56:54.431Z,15.65
2023-02-06T01:59:25.754Z,17.05
2023-02-06T02:01:54.186Z,12.00
2023-02-06T02:04:26.498Z,14.02
2023-02-06T02:07:04.235Z,12.02
2023-02-06T02:09:35.639Z,11.13
2023-02-06T02:12:04.557Z,11.60
2023-02-06T02:14:33.347Z,10.85
2023-02-06T02:17:16.194Z,12.80
2023-02-06T02:20:24.991Z,13.00
2023-02-06T02:23:03.287Z,11.57
2023-02-06T02:25:57.643Z,11.70
2023-02-06T02:28:58.468Z,9.30
2023-02-06T02:32:04.313Z,9.98
2023-02-06T02:35:02.813Z,10.23
2023-02-06T02:37:43.189Z,11.20
2023-02-06T02:40:24.475Z,10.82
2023-02-06T02:43:02.793Z,9.48
2023-02-06T02:45:37.699Z,10.35
2023-02-06T02:48:11.532Z,9.90
2023-02-06T02:50:46.880Z,10.20
2023-02-06T02:53:16.658Z,9.10
2023-02-06T02:55:45.651Z,11.70
2023-02-06T02:58:16.716Z,9.32
2023-02-06T03:00:49.992Z,9.20
2023-02-06T03:03:22.951Z,9.15
2023-02-06T03:06:09.422Z,8.02
2023-02-06T03:08:47.695Z,8.00
2023-02-06T03:11:19.420Z,9.27
2023-02-06T03:13:54.786Z,9.07
2023-02-06T03:16:27.644Z,11.50
2023-02-06T03:19:02.455Z,11.07
2023-02-06T03:21:31.141Z,12.45
2023-02-06T03:24:04.366Z,10.18
2023-02-06T03:26:34.574Z,11.27
2023-02-06T03:29:06.793Z,9.65
2023-02-06T03:31:39.340Z,10.07
2023-02-06T03:34:13.655Z,9.48
2023-02-06T03:36:42.308Z,14.55
2023-02-06T03:39:14.849Z,13.88
2023-02-06T03:41:44.986Z,10.23
2023-02-06T03:44:19.870Z,12.55
2023-02-06T03:46:49.806Z,12.82
2023-02-06T03:49:20.480Z,11.30
2023-02-06T03:51:52.283Z,13.20
2023-02-06T03:54:24.915Z,10.50
2023-02-06T03:56:55.643Z,8.48
2023-02-06T03:59:27.430Z,8.95
2023-02-06T04:01:58.568Z,9.15
2023-02-06T04:04:30.418Z,11.52
2023-02-06T04:07:03.927Z,12.10
2023-02-06T04:09:33.500Z,10.40
2023-02-06T04:12:01.664Z,9.15
2023-02-06T04:14:30.574Z,10.25
2023-02-06T04:16:58.753Z,10.95
2023-02-06T04:19:27.399Z,9.20
2023-02-06T04:21:55.599Z,12.43
2023-02-06T04:24:23.821Z,12.38
2023-02-06T04:26:53.960Z,9.95
2023-02-06T04:29:22.240Z,14.88
2023-02-06T04:31:50.470Z,12.40
2023-02-06T04:34:19.677Z,15.10
2023-02-06T04:36:47.793Z,12.85
2023-02-06T04:39:16.020Z,10.00
2023-02-06T04:41:44.185Z,15.35
2023-02-06T04:44:13.820Z,12.40
2023-02-06T04:46:43.198Z,12.40
2023-02-06T04:49:11.385Z,11.95
2023-02-06T04:51:40.229Z,14.07
2023-02-06T04:54:09.351Z,12.43
2023-02-06T04:56:37.608Z,13.82
2023-02-06T04:59:05.853Z,12.93
2023-02-06T05:01:35.462Z,13.57
2023-02-06T05:04:04.473Z,13.68
2023-02-06T05:06:32.609Z,8.38
2023-02-06T05:09:00.883Z,13.82
2023-02-06T05:11:29.387Z,14.13
2023-02-06T05:13:57.547Z,12.52
2023-02-06T05:16:25.706Z,9.52
2023-02-06T05:18:56.823Z,17.50
2023-02-06T05:21:25.964Z,12.32
2023-02-06T05:23:54.160Z,16.02
2023-02-06T05:26:22.872Z,13.82
2023-02-06T05:28:51.248Z,10.13
2023-02-06T05:31:20.301Z,11.98
2023-02-06T05:33:52.542Z,16.23
2023-02-06T05:36:23.245Z,15.30
2023-02-06T05:38:51.969Z,12.50
2023-02-06T05:41:20.219Z,13.35
2023-02-06T05:43:48.471Z,10.65
2023-02-06T05:46:17.264Z,12.25
2023-02-06T05:48:45.762Z,9.95
2023-02-06T05:51:14.030Z,10.57
2023-02-06T05:53:43.523Z,11.82
2023-02-06T05:56:12.094Z,10.82
2023-02-06T05:58:41.030Z,11.10
2023-02-06T06:01:09.349Z,11.80
2023-02-06T06:03:38.465Z,12.50
2023-02-06T06:06:08.288Z,10.60
2023-02-06T06:08:37.901Z,13.80
2023-02-06T06:11:08.137Z,11.52
2023-02-06T06:13:36.515Z,11.95
2023-02-06T06:16:04.897Z,13.45
2023-02-06T06:18:33.067Z,14.93
2023-02-06T06:21:02.207Z,11.55
2023-02-06T06:23:30.467Z,18.95
2023-02-06T06:25:58.920Z,11.75
2023-02-06T06:28:31.433Z,14.32
2023-02-06T06:31:03.331Z,9.02
2023-02-06T06:33:31.639Z,12.85
2023-02-06T06:36:00.384Z,9.73
2023-02-06T06:38:28.588Z,12.82
2023-02-06T06:40:57.032Z,14.20
2023-02-06T06:43:26.229Z,16.40
2023-02-06T06:45:55.713Z,15.57
2023-02-06T06:48:23.949Z,18.92
2023-02-06T06:50:52.733Z,13.43
2023-02-06T06:53:21.500Z,12.77
2023-02-06T06:55:50.590Z,14.27
2023-02-06T06:58:19.232Z,15.35
2023-02-06T07:00:48.293Z,16.65
2023-02-06T07:03:17.948Z,14.50
2023-02-06T07:05:47.331Z,15.07
2023-02-06T07:08:18.683Z,14.90
2023-02-06T07:10:47.933Z,15.65
2023-02-06T07:13:16.461Z,13.80
2023-02-06T07:15:44.695Z,13.77
2023-02-06T07:18:13.461Z,12.63
2023-02-06T07:20:43.248Z,15.25
2023-02-06T07:23:11.392Z,11.48
2023-02-06T07:25:39.794Z,12.95
2023-02-06T07:28:08.180Z,13.65
2023-02-06T07:30:36.730Z,14.82
2023-02-06T07:33:06.548Z,14.60
2023-02-06T07:35:35.773Z,16.92
2023-02-06T07:38:05.572Z,12.05
2023-02-06T07:40:44.803Z,16.40
2023-02-06T07:43:14.014Z,11.48
2023-02-06T07:45:42.673Z,10.20
2023-02-06T07:48:10.997Z,12.52
2023-02-06T07:50:39.166Z,14.05
2023-02-06T07:53:08.852Z,16.60
2023-02-06T07:55:38.822Z,11.82
2023-02-06T07:58:08.518Z,15.30
2023-02-06T08:00:36.699Z,8.73
2023-02-06T08:03:06.036Z,13.48
2023-02-06T08:05:35.081Z,10.95
2023-02-06T08:08:05.693Z,20.90
2023-02-06T08:10:38.057Z,11.98
2023-02-06T08:13:07.833Z,13.00
2023-02-06T08:15:36.337Z,13.45
2023-02-06T08:18:05.872Z,20.42
2023-02-06T08:20:34.385Z,19.00
2023-02-06T08:23:04.156Z,15.20
2023-02-06T08:25:32.491Z,16.45
2023-02-06T08:28:02.231Z,13.73
2023-02-06T08:30:32.339Z,10.90
2023-02-06T08:33:00.539Z,13.75
2023-02-06T08:35:28.673Z,16.33
2023-02-06T08:37:57.670Z,10.52
2023-02-06T08:40:25.803Z,10.80
2023-02-06T08:42:53.943Z,15.20
2023-02-06T08:45:23.454Z,14.30
2023-02-06T08:47:52.230Z,12.95
2023-02-06T08:50:21.367Z,11.38
2023-02-06T08:52:49.611Z,10.77
2023-02-06T08:55:18.537Z,13.25
2023-02-06T08:57:46.937Z,14.93
2023-02-06T09:00:16.541Z,13.75
2023-02-06T09:02:46.066Z,9.43
2023-02-06T09:05:15.416Z,11.07
2023-02-06T09:07:46.768Z,15.52
2023-02-06T09:10:27.134Z,13.40
2023-02-06T09:12:57.596Z,12.70
2023-02-06T09:15:28.573Z,12.05
2023-02-06T09:17:58.075Z,9.13
2023-02-06T09:20:27.289Z,15.70
2023-02-06T09:22:55.444Z,12.77
2023-02-06T09:25:23.706Z,11.70
2023-02-06T09:27:54.147Z,12.95
2023-02-06T09:30:23.945Z,10.35
2023-02-06T09:32:52.160Z,10.02
2023-02-06T09:35:22.235Z,14.70
2023-02-06T09:37:50.596Z,11.52
2023-02-06T09:40:24.388Z,11.73
2023-02-06T09:42:54.075Z,13.50
2023-02-06T09:45:24.897Z,17.83
2023-02-06T09:47:57.383Z,6.32
2023-02-06T09:50:31.762Z,10.02
2023-02-06T09:53:11.484Z,9.35
2023-02-06T09:55:44.268Z,11.73
2023-02-06T09:58:23.936Z,9.88
2023-02-06T10:00:56.484Z,9.30
2023-02-06T10:03:41.592Z,10.43
2023-02-06T10:06:20.330Z,10.48
2023-02-06T10:08:56.436Z,11.65
2023-02-06T10:11:47.838Z,9.48
2023-02-06T10:14:23.224Z,14.77
2023-02-06T10:16:57.237Z,12.77
2023-02-06T10:19:38.236Z,9.95
2023-02-06T10:22:13.684Z,10.60
2023-02-06T10:25:14.406Z,11.65
2023-02-06T10:27:47.021Z,19.77
2023-02-06T10:30:21.871Z,10.60
2023-02-06T10:33:00.469Z,12.05
2023-02-06T10:35:48.793Z,10.27
2023-02-06T10:38:38.889Z,8.43
2023-02-06T10:41:13.593Z,11.23
2023-02-06T10:43:49.029Z,16.40
2023-02-06T10:46:42.862Z,9.23
2023-02-06T10:49:22.069Z,12.88
2023-02-06T10:51:54.465Z,10.43
2023-02-06T10:54:29.487Z,8.77
2023-02-06T10:57:00.916Z,8.85
2023-02-06T10:59:32.321Z,13.63
2023-02-06T11:02:19.397Z,11.63
2023-02-06T11:04:54.895Z,9.98
2023-02-06T11:07:27.805Z,8.60
2023-02-06T11:09:57.805Z,11.60
2023-02-06T11:12:31.182Z,12.35
2023-02-06T11:15:07.620Z,8.85
2023-02-06T11:17:36.043Z,8.65
2023-02-06T11:20:20.230Z,13.10
2023-02-06T11:22:53.288Z,8.48
2023-02-06T11:25:31.520Z,10.23
2023-02-06T11:28:02.318Z,10.85
2023-02-06T11:30:34.891Z,13.32
2023-02-06T11:33:05.965Z,13.80
2023-02-06T11:35:39.133Z,8.75
2023-02-06T11:38:16.041Z,12.55
2023-02-06T11:40:54.816Z,14.05
2023-02-06T11:43:25.041Z,12.43
2023-02-06T11:46:15.701Z,11.00
2023-02-06T11:48:46.519Z,9.88
2023-02-06T11:51:16.868Z,11.45
2023-02-06T11:53:59.832Z,13.65
2023-02-06T11:56:31.033Z,8.35
2023-02-06T11:59:07.043Z,7.40
2023-02-06T12:01:43.939Z,9.63
2023-02-06T12:04:25.125Z,10.23
2023-02-06T12:07:02.129Z,10.20
2023-02-06T12:09:32.585Z,8.82
2023-02-06T12:12:07.949Z,9.88
2023-02-06T12:14:43.301Z,10.57
2023-02-06T12:17:26.660Z,10.48
2023-02-06T12:20:01.616Z,8.00
2023-02-06T12:22:37.002Z,10.75
2023-02-06T12:25:06.495Z,10.73
2023-02-06T12:27:40.023Z,6.18
2023-02-06T12:30:26.681Z,10.00
2023-02-06T12:33:01.704Z,11.82
2023-02-06T12:35:37.977Z,11.32
2023-02-06T12:38:17.124Z,9.07
2023-02-06T12:40:54.788Z,7.65
2023-02-06T12:43:24.426Z,7.07
2023-02-06T12:45:59.745Z,16.20
2023-02-06T12:48:35.529Z,15.68
2023-02-06T12:51:12.325Z,21.17
2023-02-06T12:53:44.235Z,11.40
2023-02-06T12:56:26.317Z,10.75
2023-02-06T12:59:05.601Z,16.55
2023-02-06T13:01:43.585Z,12.57
2023-02-06T13:04:17.420Z,9.57
2023-02-06T13:06:53.667Z,13.52
2023-02-06T13:09:28.278Z,11.90
2023-02-06T13:12:15.790Z,16.33
2023-02-06T13:14:51.566Z,13.80
2023-02-06T13:17:23.400Z,12.18
2023-02-06T13:20:04.889Z,10.70
2023-02-06T13:22:45.947Z,16.95
2023-02-06T13:25:50.574Z,19.15
2023-02-06T13:28:41.913Z,11.63
2023-02-06T13:31:25.379Z,27.42
2023-02-06T13:34:00.004Z,15.15
2023-02-06T13:36:53.207Z,31.33
2023-02-06T13:39:32.373Z,22.35
2023-02-06T13:42:40.581Z,16.40
2023-02-06T13:45:19.872Z,13.77
2023-02-06T13:48:18.405Z,14.52
2023-02-06T13:51:08.161Z,11.68
2023-02-06T13:54:05.326Z,11.32
2023-02-06T13:56:45.285Z,9.85
2023-02-06T13:59:20.230Z,15.90
2023-02-06T14:01:48.777Z,15.63
2023-02-06T14:04:25.174Z,12.40
2023-02-06T14:07:11.124Z,15.52
2023-02-06T14:09:56.960Z,12.40
2023-02-06T14:12:39.256Z,11.60
2023-02-06T14:15:20.634Z,13.05
2023-02-06T14:18:36.648Z,14.10
2023-02-06T14:21:19.873Z,13.25
2023-02-06T14:24:04.227Z,15.25
2023-02-06T14:26:41.829Z,12.63
2023-02-06T14:29:25.954Z,11.70
2023-02-06T14:32:20.899Z,11.02
2023-02-06T14:35:08.718Z,18.08
2023-02-06T14:37:51.385Z,17.63
2023-02-06T14:40:23.662Z,14.40
2023-02-06T14:42:53.385Z,10.65
2023-02-06T14:45:33.825Z,10.40
2023-02-06T14:48:17.312Z,10.65
2023-02-06T14:50:51.162Z,14.20
2023-02-06T14:53:25.930Z,13.90
2023-02-06T14:56:08.308Z,11.63
2023-02-06T14:58:37.331Z,11.50
2023-02-06T15:01:20.025Z,11.18
2023-02-06T15:03:49.664Z,13.23
2023-02-06T15:06:32.717Z,11.07
2023-02-06T15:09:03.160Z,7.10
2023-02-06T15:11:33.377Z,15.10
2023-02-06T15:14:03.346Z,12.52
2023-02-06T15:16:33.085Z,13.20
2023-02-06T15:19:13.610Z,9.00
2023-02-06T15:21:44.071Z,12.50
2023-02-06T15:24:45.528Z,11.90
2023-02-06T15:27:24.529Z,14.02
2023-02-06T15:29:53.665Z,11.55
2023-02-06T15:32:27.826Z,9.77
2023-02-06T15:34:56.169Z,16.63
2023-02-06T15:37:28.808Z,11.45
2023-02-06T15:40:02.442Z,12.85
2023-02-06T15:42:32.152Z,9.82
2023-02-06T15:45:01.803Z,12.90
2023-02-06T15:47:30.671Z,10.48
2023-02-06T15:50:00.370Z,8.57
2023-02-06T15:52:39.636Z,10.23
2023-02-06T15:55:23.438Z,14.00
2023-02-06T15:57:52.030Z,11.05
2023-02-06T16:00:24.495Z,11.43
2023-02-06T16:02:55.665Z,9.60
2023-02-06T16:05:31.161Z,11.70
2023-02-06T16:07:59.945Z,9.55
2023-02-06T16:10:31.515Z,15.82
2023-02-06T16:13:01.893Z,15.65
2023-02-06T16:15:33.146Z,10.23
2023-02-06T16:18:03.663Z,11.57
2023-02-06T16:20:41.122Z,12.43
2023-02-06T16:23:28.341Z,12.40
2023-02-06T16:26:08.393Z,12.07
2023-02-06T16:28:43.098Z,10.70
2023-02-06T16:31:15.163Z,12.75
2023-02-06T16:33:48.740Z,10.95
2023-02-06T16:36:19.454Z,12.80
2023-02-06T16:38:57.715Z,9.20
2023-02-06T16:41:36.028Z,6.85
2023-02-06T16:44:07.904Z,7.93
2023-02-06T16:46:36.122Z,11.93
2023-02-06T16:49:11.437Z,11.18
2023-02-06T16:51:42.317Z,11.13
2023-02-06T16:54:19.838Z,9.93
2023-02-06T16:56:50.294Z,7.40
2023-02-06T16:59:18.684Z,6.72
2023-02-06T17:01:47.063Z,14.25
2023-02-06T17:04:15.479Z,10.32
2023-02-06T17:06:44.221Z,7.55
2023-02-06T17:09:17.991Z,9.32
2023-02-06T17:11:46.416Z,11.05
2023-02-06T17:14:16.634Z,8.93
2023-02-06T17:16:45.407Z,9.48
2023-02-06T17:19:15.470Z,8.85
2023-02-06T17:21:44.744Z,11.02
2023-02-06T17:24:13.197Z,7.47
2023-02-06T17:26:41.348Z,9.85
2023-02-06T17:29:13.629Z,8.02
2023-02-06T17:31:43.641Z,14.15
2023-02-06T17:34:12.241Z,7.72
2023-02-06T17:36:40.862Z,9.00
2023-02-06T17:39:09.037Z,7.05
2023-02-06T17:41:37.306Z,11.10
2023-02-06T17:44:06.184Z,13.15
2023-02-06T17:46:34.430Z,7.93
2023-02-06T17:49:04.156Z,7.38
2023-02-06T17:51:32.457Z,8.20
2023-02-06T17:54:00.651Z,7.90
2023-02-06T17:56:28.944Z,11.85
2023-02-06T17:58:57.092Z,14.17
2023-02-06T18:01:26.131Z,8.13
2023-02-06T18:03:54.390Z,12.93
2023-02-06T18:06:33.250Z,11.27
2023-02-06T18:09:01.455Z,6.77
2023-02-06T18:11:30.703Z,8.63
2023-02-06T18:13:59.507Z,9.30
2023-02-06T18:16:29.477Z,5.90
2023-02-06T18:18:59.137Z,8.07
2023-02-06T18:21:30.990Z,8.35
2023-02-06T18:23:59.816Z,12.00
2023-02-06T18:26:28.355Z,9.73
2023-02-06T18:28:57.001Z,8.97
2023-02-06T18:31:29.204Z,8.40
2023-02-06T18:33:58.720Z,7.50
2023-02-06T18:36:27.870Z,9.93
2023-02-06T18:38:58.185Z,9.37
2023-02-06T18:41:44.768Z,8.67
2023-02-06T18:44:13.800Z,8.85
2023-02-06T18:46:42.053Z,10.18
2023-02-06T18:49:12.824Z,7.68
2023-02-06T18:51:40.996Z,5.10
2023-02-06T18:54:13.598Z,7.07
2023-02-06T18:56:45.480Z,11.00
2023-02-06T18:59:14.806Z,8.00
2023-02-06T19:01:45.966Z,10.93
2023-02-06T19:04:15.328Z,7.10
2023-02-06T19:06:45.582Z,6.00
2023-02-06T19:09:16.073Z,8.67
2023-02-06T19:11:46.664Z,8.68
2023-02-06T19:14:17.997Z,6.57
2023-02-06T19:16:49.034Z,9.30
2023-02-06T19:19:18.200Z,10.80
2023-02-06T19:21:46.554Z,7.60
2023-02-06T19:24:18.485Z,6.37
2023-02-06T19:26:47.680Z,6.80
2023-02-06T19:29:33.659Z,8.87
2023-02-06T19:32:04.048Z,7.83
2023-02-06T19:34:35.960Z,7.90
2023-02-06T19:37:04.338Z,11.33
2023-02-06T19:39:35.838Z,9.80
2023-02-06T19:42:06.706Z,9.07
2023-02-06T19:44:35.469Z,6.07
2023-02-06T19:47:04.181Z,6.27
2023-02-06T19:49:32.508Z,7.00
2023-02-06T19:52:00.960Z,6.13
2023-02-06T19:54:29.580Z,9.80
2023-02-06T19:57:00.603Z,7.77
2023-02-06T19:59:30.736Z,11.17
2023-02-06T20:02:01.122Z,12.73
2023-02-06T20:04:36.326Z,9.03
2023-02-06T20:07:05.337Z,9.97
2023-02-06T20:09:33.491Z,6.83
2023-02-06T20:12:03.132Z,7.23
2023-02-06T20:14:31.729Z,4.43
2023-02-06T20:17:00.207Z,6.50
2023-02-06T20:19:29.365Z,6.27
2023-02-06T20:22:00.495Z,9.30
2023-02-06T20:24:32.387Z,9.50
2023-02-06T20:27:05.756Z,10.43
2023-02-06T20:29:37.257Z,5.53
2023-02-06T20:32:07.243Z,2.73
2023-02-06T20:34:37.279Z,4.97
2023-02-06T20:37:06.095Z,3.63
2023-02-06T20:39:34.887Z,4.10
2023-02-06T20:42:05.237Z,4.47
2023-02-06T20:44:34.116Z,5.07
2023-02-06T20:47:02.756Z,3.83
2023-02-06T20:49:31.965Z,3.00
2023-02-06T20:52:00.447Z,5.35
2023-02-06T20:54:28.580Z,5.45
2023-02-06T20:56:56.828Z,3.33
2023-02-06T20:59:27.163Z,3.13
2023-02-06T21:01:55.401Z,4.53
2023-02-06T21:04:23.613Z,3.88
2023-02-06T21:06:51.888Z,5.10
2023-02-06T21:09:20.439Z,6.33
2023-02-06T21:11:50.284Z,4.35
2023-02-06T21:14:19.665Z,6.23
2023-02-06T21:16:50.048Z,3.03
2023-02-06T21:19:21.513Z,3.67
2023-02-06T21:21:50.762Z,3.87
2023-02-06T21:24:20.199Z,2.87
2023-02-06T21:26:48.722Z,4.20
2023-02-06T21:29:17.681Z,4.50
2023-02-06T21:31:48.416Z,4.97
2023-02-06T21:34:18.216Z,8.77
2023-02-06T21:36:47.288Z,6.73
2023-02-06T21:39:18.642Z,3.90
2023-02-06T21:41:50.238Z,4.45
2023-02-06T21:44:18.910Z,3.00
2023-02-06T21:46:48.579Z,3.37
2023-02-06T21:49:16.982Z,5.17
2023-02-06T21:51:45.478Z,6.00
2023-02-06T21:54:13.765Z,4.00
2023-02-06T21:56:41.906Z,4.20
2023-02-06T21:59:12.295Z,3.80
2023-02-06T22:01:41.407Z,2.80
2023-02-06T22:04:13.140Z,5.83
2023-02-06T22:06:41.842Z,3.50
2023-02-06T22:09:15.832Z,3.07
2023-02-06T22:11:44.829Z,4.17
2023-02-06T22:14:15.729Z,2.80
2023-02-06T22:16:46.531Z,3.57
2023-02-06T22:19:17.212Z,3.27
2023-02-06T22:21:45.811Z,5.77
2023-02-06T22:24:14.763Z,4.17
2023-02-06T22:26:43.250Z,6.00
2023-02-06T22:29:13.792Z,3.93
2023-02-06T22:31:43.374Z,3.77
2023-02-06T22:34:18.308Z,4.00
2023-02-06T22:36:47.443Z,2.90
2023-02-06T22:39:16.481Z,4.00
2023-02-06T22:41:46.586Z,4.73
2023-02-06T22:44:17.152Z,4.23
2023-02-06T22:46:47.750Z,4.73
2023-02-06T22:49:18.471Z,4.23
2023-02-06T22:51:46.754Z,5.97
2023-02-06T22:54:15.428Z,4.37
2023-02-06T22:56:44.730Z,5.70
2023-02-06T22:59:14.711Z,3.77
2023-02-06T23:01:44.763Z,3.40
2023-02-06T23:04:14.995Z,5.37
2023-02-06T23:06:45.997Z,4.80
2023-02-06T23:09:17.103Z,5.30
2023-02-06T23:11:45.646Z,7.47
2023-02-06T23:14:15.994Z,6.47
2023-02-06T23:16:44.279Z,6.10
2023-02-06T23:19:14.105Z,6.00
2023-02-06T23:21:46.270Z,7.07
2023-02-06T23:24:15.525Z,5.47
2023-02-06T23:26:46.057Z,7.00
2023-02-06T23:29:18.765Z,7.40
2023-02-06T23:31:48.325Z,7.33
2023-02-06T23:34:17.492Z,7.73
2023-02-06T23:36:48.148Z,6.53
2023-02-06T23:39:16.388Z,6.40
2023-02-06T23:41:45.415Z,8.70
2023-02-06T23:44:14.460Z,6.27
2023-02-06T23:46:42.888Z,7.47
2023-02-06T23:49:11.472Z,7.97
2023-02-06T23:51:39.716Z,6.80
2023-02-06T23:54:10.539Z,6.77
2023-02-06T23:56:39.304Z,8.07
2023-02-06T23:59:07.760Z,9.63
